createdAt,value
2022-11-15T00:04:37.554Z,100.00
2022-11-15T00:09:43.397Z,99.66
2022-11-15T00:14:49.489Z,99.97
2022-11-15T00:19:51.866Z,99.87
2022-11-15T00:24:53.751Z,100.00
2022-11-15T00:29:56.796Z,99.69
2022-11-15T00:34:59.167Z,99.40
2022-11-15T00:40:00.903Z,99.76
2022-11-15T00:45:04.759Z,99.42
2022-11-15T00:50:12.958Z,99.28
2022-11-15T00:55:18.563Z,99.32
2022-11-15T01:00:21.704Z,99.45
2022-11-15T01:05:24.066Z,100.00
2022-11-15T01:10:26.165Z,99.43
2022-11-15T01:15:29.612Z,99.71
2022-11-15T01:20:31.739Z,99.33
2022-11-15T01:25:33.875Z,99.47
2022-11-15T01:30:38.446Z,100.00
2022-11-15T01:35:40.967Z,100.00
2022-11-15T01:40:43.114Z,100.00
2022-11-15T01:45:50.163Z,100.00
2022-11-15T01:50:52.387Z,100.00
2022-11-15T01:55:55.118Z,100.00
2022-11-15T02:00:58.238Z,100.00
2022-11-15T02:06:00.724Z,100.00
2022-11-15T02:11:05.436Z,100.00
2022-11-15T02:16:19.352Z,100.00
2022-11-15T02:21:34.832Z,100.00
2022-11-15T02:27:10.092Z,100.00
2022-11-15T02:32:20.590Z,100.00
2022-11-15T02:37:31.998Z,100.00
2022-11-15T02:42:38.158Z,100.00
2022-11-15T02:47:44.634Z,100.00
2022-11-15T02:52:47.613Z,100.00
2022-11-15T02:57:56.844Z,100.00
2022-11-15T03:03:20.632Z,100.00
2022-11-15T03:08:32.610Z,100.00
2022-11-15T03:13:40.699Z,100.00
2022-11-15T03:18:47.360Z,100.00
2022-11-15T03:23:52.224Z,100.00
2022-11-15T03:28:58.853Z,100.00
2022-11-15T03:34:06.410Z,100.00
2022-11-15T03:39:10.198Z,100.00
2022-11-15T03:44:17.761Z,100.00
2022-11-15T03:49:26.978Z,100.00
2022-11-15T03:54:29.393Z,100.00
2022-11-15T03:59:31.679Z,100.00
2022-11-15T04:04:35.273Z,100.00
2022-11-15T04:09:37.134Z,100.00
2022-11-15T04:14:39.218Z,100.00
2022-11-15T04:19:42.807Z,100.00
2022-11-15T04:24:45.185Z,100.00
2022-11-15T04:29:47.494Z,100.00
2022-11-15T04:34:50.962Z,100.00
2022-11-15T04:39:53.095Z,100.00
2022-11-15T04:44:55.144Z,100.00
2022-11-15T04:49:58.695Z,100.00
2022-11-15T04:55:06.735Z,100.00
2022-11-15T05:00:14.100Z,100.00
2022-11-15T05:05:17.869Z,100.00
2022-11-15T05:10:20.143Z,100.00
2022-11-15T05:15:22.370Z,100.00
2022-11-15T05:20:25.709Z,100.00
2022-11-15T05:25:28.576Z,100.00
2022-11-15T05:30:31.567Z,100.00
2022-11-15T05:35:39.969Z,100.00
2022-11-15T05:40:42.236Z,100.00
2022-11-15T05:45:44.116Z,100.00
2022-11-15T05:50:48.693Z,100.00
2022-11-15T05:55:51.176Z,100.00
2022-11-15T06:00:53.128Z,100.00
2022-11-15T06:05:57.614Z,100.00
2022-11-15T06:11:04.955Z,100.00
2022-11-15T06:16:07.373Z,100.00
2022-11-15T06:21:10.785Z,100.00
2022-11-15T06:26:12.806Z,100.00
2022-11-15T06:31:15.115Z,100.00
2022-11-15T06:36:18.626Z,100.00
2022-11-15T06:41:20.731Z,100.00
2022-11-15T06:46:22.921Z,100.00
2022-11-15T06:51:26.451Z,100.00
2022-11-15T06:56:28.193Z,100.00
2022-11-15T07:01:30.656Z,100.00
2022-11-15T07:06:34.318Z,100.00
2022-11-15T07:11:36.569Z,100.00
2022-11-15T07:16:38.632Z,100.00
2022-11-15T07:21:42.162Z,100.00
2022-11-15T07:26:44.496Z,100.00
2022-11-15T07:31:46.644Z,100.00
2022-11-15T07:36:49.944Z,100.00
2022-11-15T07:41:51.948Z,100.00
2022-11-15T07:46:54.205Z,100.00
2022-11-15T07:51:57.567Z,100.00
2022-11-15T07:57:04.042Z,100.00
2022-11-15T08:02:10.531Z,100.00
2022-11-15T08:07:14.475Z,100.00
2022-11-15T08:12:16.649Z,100.00
2022-11-15T08:17:18.823Z,100.00
2022-11-15T08:22:22.519Z,100.00
2022-11-15T08:27:24.919Z,100.00
2022-11-15T08:32:27.109Z,100.00
2022-11-15T08:37:30.707Z,100.00
2022-11-15T08:42:32.458Z,100.00
2022-11-15T08:47:35.389Z,100.00
2022-11-15T08:52:38.848Z,100.00
2022-11-15T08:57:41.293Z,98.59
2022-11-15T09:02:43.397Z,96.38
2022-11-15T09:07:47.096Z,94.72
2022-11-15T09:12:49.361Z,93.63
2022-11-15T09:17:51.493Z,93.21
2022-11-15T09:22:55.003Z,91.26
2022-11-15T09:27:58.178Z,90.53
2022-11-15T09:33:00.336Z,88.77
2022-11-15T09:38:04.695Z,87.86
2022-11-15T09:43:21.175Z,86.73
2022-11-15T09:48:43.922Z,85.08
2022-11-15T09:59:26.018Z,51.43
2022-11-15T10:04:29.051Z,48.11
2022-11-15T10:09:39.209Z,50.21
2022-11-15T10:14:43.000Z,38.43
2022-11-15T10:19:56.570Z,44.84
2022-11-15T10:25:15.936Z,43.67
2022-11-15T10:30:19.651Z,45.45
2022-11-15T10:35:26.079Z,44.16
2022-11-15T10:40:29.605Z,45.32
2022-11-15T10:45:34.131Z,41.93
2022-11-15T10:50:35.805Z,45.22
2022-11-15T10:55:41.813Z,45.73
2022-11-15T11:00:43.856Z,40.77
2022-11-15T11:05:46.079Z,39.96
2022-11-15T11:11:01.339Z,39.91
2022-11-15T11:16:20.571Z,39.94
2022-11-15T11:21:36.778Z,52.10
2022-11-15T11:26:57.103Z,61.37
2022-11-15T11:32:08.976Z,60.93
2022-11-15T11:37:19.319Z,61.82
2022-11-15T11:42:34.944Z,62.85
2022-11-15T11:47:41.465Z,65.39
2022-11-15T11:52:54.021Z,64.78
2022-11-15T11:58:06.004Z,64.97
2022-11-15T12:03:13.910Z,62.72
2022-11-15T12:08:30.521Z,65.07
2022-11-15T12:13:35.947Z,63.56
2022-11-15T12:18:38.358Z,62.88
2022-11-15T12:23:45.171Z,63.49
2022-11-15T12:29:06.919Z,63.37
2022-11-15T12:34:41.671Z,62.43
2022-11-15T12:40:06.221Z,62.68
2022-11-15T12:45:27.751Z,62.45
2022-11-15T12:50:55.133Z,63.24
2022-11-15T12:56:19.093Z,63.35
2022-11-15T13:02:11.781Z,64.19
2022-11-15T13:07:58.781Z,64.19
2022-11-15T13:13:02.629Z,63.89
2022-11-15T13:18:41.235Z,63.59
2022-11-15T13:23:46.767Z,64.45
2022-11-15T13:28:50.866Z,64.70
2022-11-15T13:33:56.123Z,64.92
2022-11-15T13:39:03.080Z,65.76
2022-11-15T13:44:19.986Z,66.35
2022-11-15T13:49:30.967Z,66.77
2022-11-15T13:54:37.745Z,67.72
2022-11-15T13:59:47.719Z,68.08
2022-11-15T14:04:52.863Z,69.08
2022-11-15T14:09:56.389Z,68.71
2022-11-15T14:14:59.383Z,70.62
2022-11-15T14:20:01.907Z,71.86
2022-11-15T14:25:16.471Z,72.86
2022-11-15T14:30:19.097Z,73.75
2022-11-15T14:35:23.556Z,74.75
2022-11-15T14:40:27.454Z,75.76
2022-11-15T14:45:29.879Z,77.68
2022-11-15T14:50:34.034Z,78.10
2022-11-15T14:55:37.481Z,79.81
2022-11-15T15:00:41.863Z,79.70
2022-11-15T15:05:45.278Z,81.66
2022-11-15T15:10:48.975Z,82.25
2022-11-15T15:15:52.034Z,82.64
2022-11-15T15:20:57.338Z,84.36
2022-11-15T15:26:00.919Z,86.19
2022-11-15T15:31:03.092Z,87.16
2022-11-15T15:36:05.491Z,87.48
2022-11-15T15:41:11.961Z,88.36
2022-11-15T15:46:16.536Z,88.47
2022-11-15T15:51:20.693Z,89.12
2022-11-15T15:56:25.093Z,89.22
2022-11-15T16:01:27.535Z,90.21
2022-11-15T16:06:36.978Z,90.77
2022-11-15T16:11:40.511Z,90.63
2022-11-15T16:16:42.278Z,90.96
2022-11-15T16:21:44.377Z,92.26
2022-11-15T16:26:48.807Z,93.04
2022-11-15T16:31:50.907Z,93.38
2022-11-15T16:36:54.218Z,94.16
2022-11-15T16:41:57.685Z,94.53
2022-11-15T16:47:00.896Z,95.04
2022-11-15T16:52:02.600Z,94.50
2022-11-15T16:57:05.847Z,94.02
2022-11-15T17:02:12.172Z,94.23
2022-11-15T17:07:13.965Z,94.15
2022-11-15T17:12:17.109Z,94.09
2022-11-15T17:17:19.021Z,94.44
2022-11-15T17:22:21.242Z,93.54
2022-11-15T17:27:24.754Z,92.86
2022-11-15T17:32:26.743Z,92.63
2022-11-15T17:37:28.582Z,93.08
2022-11-15T17:42:32.017Z,93.30
2022-11-15T17:47:34.010Z,93.10
2022-11-15T17:52:35.723Z,93.05
2022-11-15T17:57:38.961Z,93.52
2022-11-15T18:02:40.976Z,93.81
2022-11-15T18:07:42.780Z,93.24
2022-11-15T18:12:45.844Z,93.40
2022-11-15T18:17:47.684Z,94.44
2022-11-15T18:22:52.545Z,94.49
2022-11-15T18:27:56.016Z,95.00
2022-11-15T18:32:58.227Z,95.10
2022-11-15T18:37:59.968Z,96.63
2022-11-15T18:43:03.804Z,97.75
2022-11-15T18:48:06.113Z,98.33
2022-11-15T18:53:07.925Z,98.84
2022-11-15T18:58:11.059Z,99.29
2022-11-15T19:03:12.864Z,100.00
2022-11-15T19:08:14.588Z,100.00
2022-11-15T19:13:18.414Z,100.00
2022-11-15T19:18:20.755Z,100.00
2022-11-15T19:23:23.156Z,100.00
2022-11-15T19:28:27.111Z,100.00
2022-11-15T19:33:28.785Z,100.00
2022-11-15T19:38:31.176Z,100.00
2022-11-15T19:43:35.580Z,100.00
2022-11-15T19:48:38.179Z,100.00
2022-11-15T19:53:40.703Z,100.00
2022-11-15T19:58:45.675Z,100.00
2022-11-15T20:03:48.177Z,100.00
2022-11-15T20:08:50.391Z,100.00
2022-11-15T20:13:56.455Z,100.00
2022-11-15T20:18:58.350Z,100.00
2022-11-15T20:24:00.267Z,100.00
2022-11-15T20:29:04.038Z,100.00
2022-11-15T20:34:06.696Z,100.00
2022-11-15T20:39:09.174Z,100.00
2022-11-15T20:44:13.020Z,100.00
2022-11-15T20:49:14.841Z,100.00
2022-11-15T20:54:16.910Z,100.00
2022-11-15T20:59:20.128Z,100.00
2022-11-15T21:04:23.438Z,100.00
2022-11-15T21:09:25.773Z,100.00
2022-11-15T21:14:29.202Z,100.00
2022-11-15T21:19:35.586Z,100.00
2022-11-15T21:24:39.053Z,100.00
2022-11-15T21:29:42.567Z,100.00
2022-11-15T21:34:44.692Z,100.00
2022-11-15T21:39:46.762Z,100.00
2022-11-15T21:44:50.513Z,100.00
2022-11-15T21:49:52.335Z,100.00
2022-11-15T21:54:54.374Z,100.00
2022-11-15T21:59:57.427Z,100.00
2022-11-15T22:04:59.773Z,100.00
2022-11-15T22:10:01.649Z,100.00
2022-11-15T22:15:05.783Z,100.00
2022-11-15T22:20:29.967Z,100.00
2022-11-15T22:25:31.181Z,100.00
2022-11-15T22:30:34.838Z,100.00
2022-11-15T22:35:38.417Z,100.00
2022-11-15T22:40:40.409Z,100.00
2022-11-15T22:45:52.134Z,100.00
2022-11-15T22:50:54.842Z,100.00
2022-11-15T22:55:58.553Z,100.00
2022-11-15T23:01:04.114Z,100.00
2022-11-15T23:06:07.665Z,100.00
2022-11-15T23:11:11.433Z,100.00
2022-11-15T23:16:14.890Z,100.00
2022-11-15T23:21:18.858Z,100.00
2022-11-15T23:26:21.483Z,100.00
2022-11-15T23:31:25.213Z,100.00
2022-11-15T23:36:29.033Z,100.00
2022-11-15T23:41:31.166Z,100.00
2022-11-15T23:46:35.197Z,100.00
2022-11-15T23:51:37.348Z,100.00
2022-11-15T23:56:39.878Z,100.00
